Time;durP1;ratioP1;P1;durP2;ratioP2;P2;SDS_P1;SDS_P2;PMS_P1;PMS_P2;Temp;Humidity;BMP_temperature;BMP_pressure;BME280_temperature;BME280_humidity;BME280_pressure;Samples;Min_cycle;Max_cycle;Signal;HPM_P1;HPM_P2
2022/08/24 00:01:22;;;;;;;12.48;5.63;;;;;;;22.19;100.00;98518.53;5153843;27;20049;-51
2022/08/24 00:03:49;;;;;;;15.07;6.55;;;;;;;22.13;100.00;98523.16;5153472;27;20050;-51
2022/08/24 00:06:18;;;;;;;12.27;5.68;;;;;;;22.05;100.00;98531.00;5153603;27;20472;-50
2022/08/24 00:08:45;;;;;;;13.68;5.72;;;;;;;21.92;100.00;98538.69;5153277;27;20055;-49
2022/08/24 00:11:12;;;;;;;18.92;6.10;;;;;;;22.12;100.00;98530.72;5153373;27;20058;-50
2022/08/24 00:13:39;;;;;;;9.57;5.47;;;;;;;22.05;100.00;98531.00;5153207;27;20118;-50
2022/08/24 00:16:06;;;;;;;15.65;7.40;;;;;;;21.96;100.00;98533.75;5153415;27;20053;-50
2022/08/24 00:18:33;;;;;;;14.45;7.93;;;;;;;21.90;100.00;98536.38;5153141;27;20141;-50
2022/08/24 00:21:00;;;;;;;8.63;5.47;;;;;;;22.02;100.00;98541.06;5153154;27;20138;-51
2022/08/24 00:23:27;;;;;;;15.88;6.57;;;;;;;22.01;100.00;98536.72;5153205;27;20382;-53
2022/08/24 00:25:53;;;;;;;8.05;5.20;;;;;;;21.95;100.00;98544.13;5152982;27;20051;-53
2022/08/24 00:28:19;;;;;;;9.52;5.13;;;;;;;22.00;100.00;98537.97;5153263;27;20461;-50
2022/08/24 00:30:46;;;;;;;12.27;6.05;;;;;;;22.02;100.00;98543.09;5152932;27;20091;-52
2022/08/24 00:33:13;;;;;;;8.95;5.13;;;;;;;21.89;100.00;98548.75;5153103;27;20089;-52
2022/08/24 00:35:39;;;;;;;8.98;5.68;;;;;;;21.87;100.00;98547.66;5152815;27;20097;-49
2022/08/24 00:38:05;;;;;;;11.05;5.40;;;;;;;21.82;100.00;98558.16;5151469;27;20497;-52
2022/08/24 00:40:36;;;;;;;13.02;5.90;;;;;;;21.62;100.00;98563.31;5152848;27;20519;-51
2022/08/24 00:43:06;;;;;;;16.25;6.28;;;;;;;21.68;100.00;98572.66;5153147;27;20050;-52
2022/08/24 00:45:36;;;;;;;15.25;6.35;;;;;;;21.69;100.00;98565.81;5152758;27;20092;-50
2022/08/24 00:48:24;;;;;;;7.90;5.60;;;;;;;21.69;100.00;98563.03;5152582;27;20110;-52
2022/08/24 00:50:55;;;;;;;14.98;6.00;;;;;;;21.65;100.00;98572.78;5152955;27;20053;-53
2022/08/24 00:53:25;;;;;;;11.70;5.22;;;;;;;21.64;100.00;98565.66;5152398;27;20060;-50
2022/08/24 00:55:55;;;;;;;5.97;5.25;;;;;;;21.48;100.00;98578.53;5152880;27;20054;-54
2022/08/24 00:58:28;;;;;;;9.48;5.93;;;;;;;21.50;100.00;98589.25;5152583;27;20535;-51
2022/08/24 01:00:56;;;;;;;11.00;5.82;;;;;;;21.49;100.00;98593.25;5152632;27;20121;-54
2022/08/24 01:03:25;;;;;;;10.32;5.90;;;;;;;21.54;100.00;98582.31;5152383;27;20050;-54
2022/08/24 01:05:52;;;;;;;8.70;5.15;;;;;;;21.50;100.00;98581.66;5152343;27;20047;-51
2022/08/24 01:08:20;;;;;;;8.55;5.55;;;;;;;21.25;100.00;98582.50;5152532;27;20563;-53
2022/08/24 01:10:49;;;;;;;11.18;5.35;;;;;;;21.52;100.00;98589.56;5152219;27;20050;-50
2022/08/24 01:13:17;;;;;;;11.65;5.40;;;;;;;21.40;100.00;98590.41;5152543;27;20516;-50
2022/08/24 01:15:48;;;;;;;10.07;6.05;;;;;;;21.45;100.00;98587.03;5152345;27;20154;-51
2022/08/24 01:21:09;;;;;;;7.55;4.97;;;;;;;21.23;100.00;98603.72;5152247;27;20068;-50
2022/08/24 01:23:38;;;;;;;7.88;5.07;;;;;;;21.14;100.00;98629.50;5152142;27;20145;-49
2022/08/24 01:26:06;;;;;;;11.02;5.65;;;;;;;21.29;100.00;98610.25;5152111;27;20141;-49
2022/08/24 01:28:34;;;;;;;10.13;5.45;;;;;;;21.18;100.00;98607.84;5151945;27;20051;-51
2022/08/24 01:31:00;;;;;;;13.15;4.97;;;;;;;21.28;100.00;98612.28;5152044;27;20506;-50
2022/08/24 01:33:30;;;;;;;8.82;4.97;;;;;;;21.29;100.00;98599.09;5152113;27;20072;-50
2022/08/24 01:36:00;;;;;;;16.60;5.38;;;;;;;20.90;100.00;98634.66;5151823;27;20138;-50
2022/08/24 01:38:26;;;;;;;13.20;5.57;;;;;;;21.07;100.00;98638.88;5151760;27;20134;-49
2022/08/24 01:40:57;;;;;;;10.48;5.35;;;;;;;21.03;100.00;98643.78;5151871;27;20047;-49
2022/08/24 01:43:23;;;;;;;10.27;5.63;;;;;;;21.10;100.00;98626.81;5151761;27;20503;-50
2022/08/24 01:45:50;;;;;;;17.75;6.05;;;;;;;20.96;100.00;98627.31;5151963;27;20134;-49
2022/08/24 01:48:18;;;;;;;7.25;4.90;;;;;;;20.97;100.00;98642.78;5151738;27;20050;-49
2022/08/24 01:50:45;;;;;;;10.48;5.53;;;;;;;20.89;100.00;98656.19;5151225;27;20046;-52
2022/08/24 01:53:12;;;;;;;16.77;6.00;;;;;;;20.74;100.00;98673.78;5151661;27;20082;-50
2022/08/24 01:55:39;;;;;;;8.32;5.20;;;;;;;20.87;100.00;98661.41;5151729;27;20047;-49
2022/08/24 01:58:06;;;;;;;10.20;5.78;;;;;;;20.92;100.00;98662.84;5151545;27;20141;-49
2022/08/24 02:00:34;;;;;;;10.90;5.30;;;;;;;20.83;100.00;98662.75;5151532;27;20047;-52
2022/08/24 02:03:01;;;;;;;11.60;5.90;;;;;;;20.66;100.00;98687.16;5151590;27;20047;-50
2022/08/24 02:05:28;;;;;;;13.88;5.68;;;;;;;20.84;100.00;98684.59;5151384;27;20050;-54
2022/08/24 02:07:57;;;;;;;17.08;5.90;;;;;;;20.83;100.00;98676.69;5151799;27;20053;-52
2022/08/24 02:10:23;;;;;;;7.40;5.32;;;;;;;20.75;100.00;98670.53;5151366;27;20051;-53
2022/08/24 02:12:56;;;;;;;19.65;7.63;;;;;;;20.68;100.00;98674.31;5151480;27;20553;-52
2022/08/24 02:15:26;;;;;;;13.75;5.68;;;;;;;20.78;100.00;98680.78;5151367;27;20410;-50
2022/08/24 02:17:52;;;;;;;13.52;7.72;;;;;;;20.55;100.00;98687.47;5151304;27;20051;-51
2022/08/24 02:20:20;;;;;;;11.70;4.85;;;;;;;20.62;100.00;98703.19;5151511;27;20061;-51
2022/08/24 02:22:46;;;;;;;14.80;5.68;;;;;;;20.57;100.00;98700.97;5151371;27;20046;-51
2022/08/24 02:25:13;;;;;;;16.25;8.07;;;;;;;20.65;100.00;98702.28;5151359;27;20099;-50
2022/08/24 02:27:39;;;;;;;15.88;6.18;;;;;;;20.62;100.00;98692.03;5151254;27;20078;-52
2022/08/24 02:30:06;;;;;;;9.55;5.78;;;;;;;20.55;100.00;98717.31;5151390;27;20098;-49
2022/08/24 02:32:33;;;;;;;15.73;6.07;;;;;;;20.55;100.00;98701.38;5151183;27;20050;-52
2022/08/24 02:34:59;;;;;;;13.45;6.20;;;;;;;20.45;100.00;98739.44;5151421;27;20094;-53
2022/08/24 02:37:26;;;;;;;11.52;5.40;;;;;;;20.47;100.00;98727.09;5151018;27;20051;-51
2022/08/24 02:39:52;;;;;;;8.38;6.10;;;;;;;20.46;100.00;98729.09;5151262;27;20058;-50
2022/08/24 02:42:18;;;;;;;11.18;5.70;;;;;;;20.44;100.00;98728.75;5151177;27;20488;-49
2022/08/24 02:44:45;;;;;;;8.65;5.40;;;;;;;20.40;100.00;98737.19;5151220;27;20047;-51
2022/08/24 02:47:11;;;;;;;8.25;5.30;;;;;;;20.38;100.00;98734.06;5151396;27;20089;-53
2022/08/24 02:49:38;;;;;;;12.57;5.55;;;;;;;20.45;100.00;98744.22;5151133;27;20105;-53
2022/08/24 02:52:04;;;;;;;7.32;5.47;;;;;;;20.42;100.00;98733.97;5151045;27;20050;-53
2022/08/24 02:54:31;;;;;;;9.27;6.03;;;;;;;20.36;100.00;98744.88;5150862;27;20051;-50
2022/08/24 02:56:57;;;;;;;9.07;5.55;;;;;;;20.11;100.00;98753.13;5150977;27;20529;-51
2022/08/24 02:59:23;;;;;;;11.13;5.38;;;;;;;20.13;100.00;98759.06;5150694;27;20093;-52
2022/08/24 03:01:50;;;;;;;11.85;5.63;;;;;;;20.41;100.00;98738.75;5151987;27;20649;-52
2022/08/24 03:04:17;;;;;;;11.02;5.82;;;;;;;20.47;100.00;98716.72;5154413;27;20129;-51
2022/08/24 03:06:44;;;;;;;11.48;6.18;;;;;;;20.44;100.00;98723.94;5154631;27;20137;-49
2022/08/24 03:09:10;;;;;;;11.05;5.82;;;;;;;20.64;100.00;98703.53;5154342;27;20513;-50
2022/08/24 03:11:37;;;;;;;14.75;6.05;;;;;;;20.50;100.00;98724.19;5154527;27;20501;-50
2022/08/24 03:14:03;;;;;;;13.30;5.45;;;;;;;20.61;100.00;98696.06;5154357;27;20053;-49
2022/08/24 03:16:30;;;;;;;11.60;6.00;;;;;;;20.41;100.00;98712.91;5154265;27;20134;-52
2022/08/24 03:18:57;;;;;;;15.75;5.43;;;;;;;20.57;100.00;98717.66;5154557;27;20066;-49
2022/08/24 03:21:23;;;;;;;13.65;5.40;;;;;;;20.56;100.00;98719.66;5154015;27;20141;-52
2022/08/24 03:23:50;;;;;;;12.32;6.00;;;;;;;20.68;100.00;98712.53;5154181;27;20066;-51
2022/08/24 03:26:16;;;;;;;8.82;5.40;;;;;;;20.75;100.00;98697.63;5153976;27;20078;-50
2022/08/24 03:28:43;;;;;;;14.52;6.47;;;;;;;20.60;100.00;98694.50;5154101;27;20050;-49
2022/08/24 03:31:09;;;;;;;11.27;5.75;;;;;;;20.46;100.00;98709.59;5153943;27;20137;-52
2022/08/24 03:33:35;;;;;;;11.57;5.82;;;;;;;20.59;100.00;98721.56;5154367;27;20146;-50
2022/08/24 03:36:02;;;;;;;10.30;6.07;;;;;;;20.55;100.00;98740.38;5153977;27;20191;-53
2022/08/24 03:38:28;;;;;;;12.48;6.55;;;;;;;20.76;100.00;98713.91;5154094;27;20494;-49
2022/08/24 03:40:55;;;;;;;7.05;5.20;;;;;;;21.11;100.00;98678.53;5153766;27;20054;-51
2022/08/24 03:46:07;;;;;;;13.85;6.68;;;;;;;21.41;100.00;98639.38;5154014;27;20049;-52
2022/08/24 03:48:34;;;;;;;11.90;5.53;;;;;;;21.51;100.00;98636.22;5153699;27;20111;-50
2022/08/24 03:51:00;;;;;;;10.23;5.70;;;;;;;21.45;100.00;98640.78;5153638;27;20142;-51
2022/08/24 03:53:27;;;;;;;8.88;5.70;;;;;;;21.59;100.00;98631.16;5153761;27;20047;-50
2022/08/24 03:55:53;;;;;;;13.07;5.55;;;;;;;21.78;100.00;98632.06;5153481;27;20141;-52
2022/08/24 03:58:20;;;;;;;7.78;5.32;;;;;;;22.00;100.00;98630.06;5153682;27;20143;-50
2022/08/24 04:00:46;;;;;;;11.35;5.13;;;;;;;22.34;100.00;98628.44;5153896;27;20054;-52
2022/08/24 04:03:13;;;;;;;13.38;5.47;;;;;;;22.28;100.00;98642.19;5153395;27;20089;-53
2022/08/24 04:05:41;;;;;;;16.60;5.38;;;;;;;22.39;100.00;98639.00;5153657;27;20141;-52
2022/08/24 04:08:08;;;;;;;9.15;6.85;;;;;;;22.84;100.00;98651.59;5153479;27;20054;-53
2022/08/24 04:10:35;;;;;;;11.35;5.97;;;;;;;22.58;100.00;98662.22;5153253;27;20146;-50
2022/08/24 04:13:01;;;;;;;9.85;4.95;;;;;;;22.74;100.00;98661.19;5153137;27;20078;-53
2022/08/24 04:15:28;;;;;;;15.65;5.38;;;;;;;23.40;100.00;98678.50;5153178;27;20134;-51
2022/08/24 04:17:55;;;;;;;8.07;6.63;;;;;;;23.70;100.00;98709.66;5153455;27;20050;-50
2022/08/24 04:20:22;;;;;;;9.73;5.35;;;;;;;23.24;100.00;98698.34;5153225;27;20420;-50
2022/08/24 04:22:50;;;;;;;9.35;5.72;;;;;;;23.86;100.00;98730.97;5153075;27;20058;-52
2022/08/24 04:25:16;;;;;;;10.15;7.50;;;;;;;24.11;100.00;98755.06;5153182;27;20115;-53
2022/08/24 04:27:42;;;;;;;8.82;5.90;;;;;;;23.90;100.00;98745.59;5153466;27;20466;-53
2022/08/24 04:30:10;;;;;;;10.73;5.32;;;;;;;24.31;100.00;98783.38;5152828;27;20047;-53
2022/08/24 04:32:37;;;;;;;11.82;7.05;;;;;;;24.49;100.00;98804.25;5153304;27;20402;-53
2022/08/24 04:35:04;;;;;;;9.55;5.75;;;;;;;24.04;100.00;98784.16;5153107;27;20085;-54
2022/08/24 04:37:30;;;;;;;15.15;6.03;;;;;;;25.07;100.00;98848.06;5152873;27;20418;-53
2022/08/24 04:39:56;;;;;;;10.93;7.50;;;;;;;25.08;100.00;98861.59;5152882;27;20528;-54
2022/08/24 04:42:23;;;;;;;10.38;7.15;;;;;;;25.35;100.00;98883.22;5152745;27;20051;-54
2022/08/24 04:44:49;;;;;;;9.80;7.07;;;;;;;24.37;100.00;98840.34;5152850;27;20410;-51
2022/08/24 04:47:15;;;;;;;13.00;7.63;;;;;;;25.07;100.00;98842.47;5152842;27;20509;-50
2022/08/24 04:49:42;;;;;;;9.30;5.40;;;;;;;25.29;100.00;98854.28;5153036;27;20386;-53
2022/08/24 04:52:09;;;;;;;11.00;6.80;;;;;;;25.22;100.00;98863.00;5152899;27;20078;-52
2022/08/24 04:54:35;;;;;;;8.57;7.00;;;;;;;25.79;100.00;98910.84;5152895;27;20102;-52
2022/08/24 04:57:02;;;;;;;7.30;6.47;;;;;;;25.50;100.00;98902.97;5152631;27;20085;-54
2022/08/24 04:59:28;;;;;;;12.07;6.43;;;;;;;25.69;100.00;98900.91;5152892;27;20050;-54
2022/08/24 05:01:54;;;;;;;10.40;7.20;;;;;;;25.49;100.00;98915.47;5152431;27;20078;-51
2022/08/24 05:04:20;;;;;;;9.75;7.28;;;;;;;25.59;100.00;98868.47;5152276;27;20190;-53
2022/08/24 05:06:49;;;;;;;11.77;7.03;;;;;;;26.07;100.00;98888.25;5152121;27;20081;-61
2022/08/24 05:09:15;;;;;;;16.98;7.05;;;;;;;27.00;100.00;98976.28;5173105;27;20082;-62
2022/08/24 05:11:41;;;;;;;16.10;7.32;;;;;;;27.45;100.00;99030.63;5173281;27;20470;-60
2022/08/24 05:14:08;;;;;;;14.75;6.80;;;;;;;27.02;100.00;99027.22;5173022;27;20046;-62
2022/08/24 05:16:36;;;;;;;13.40;6.38;;;;;;;26.46;100.00;99018.34;5173082;27;20141;-62
2022/08/24 05:19:03;;;;;;;9.02;6.72;;;;;;;27.17;100.00;99041.38;5173222;27;20054;-63
2022/08/24 05:21:30;;;;;;;8.32;6.18;;;;;;;27.88;100.00;99064.97;5173059;27;20178;-63
2022/08/24 05:23:57;;;;;;;10.07;6.28;;;;;;;27.37;100.00;99044.31;5172099;27;20047;-60
2022/08/24 05:26:25;;;;;;;10.35;6.22;;;;;;;27.81;100.00;99073.81;5172438;27;20082;-62
2022/08/24 05:28:53;;;;;;;12.23;6.00;;;;;;;28.27;100.00;99099.44;5172497;27;20103;-62
2022/08/24 05:31:22;;;;;;;11.63;6.97;;;;;;;27.43;100.00;99070.53;5172721;27;20046;-65
2022/08/24 05:33:49;;;;;;;9.90;6.82;;;;;;;27.82;100.00;99089.44;5173196;27;20528;-63
2022/08/24 05:36:17;;;;;;;12.60;6.15;;;;;;;27.56;100.00;99081.53;5172878;27;20050;-63
2022/08/24 05:38:44;;;;;;;8.43;5.90;;;;;;;27.88;100.00;99062.13;5172157;27;20058;-62
2022/08/24 05:41:11;;;;;;;10.43;6.13;;;;;;;27.65;100.00;99084.25;5172565;27;20050;-62
2022/08/24 05:43:38;;;;;;;11.02;6.57;;;;;;;27.66;100.00;99087.84;5172341;27;20050;-62
2022/08/24 05:46:05;;;;;;;7.82;5.93;;;;;;;28.27;100.00;99076.09;5172292;27;20050;-63
2022/08/24 05:48:31;;;;;;;6.93;6.00;;;;;;;29.23;100.00;99118.56;5172194;27;20607;-62
2022/08/24 05:50:58;;;;;;;11.25;6.80;;;;;;;29.04;100.00;99173.72;5171774;27;20078;-61
2022/08/24 05:53:24;;;;;;;11.57;5.85;;;;;;;28.69;100.00;99140.63;5161085;27;20078;-62
2022/08/24 05:55:51;;;;;;;8.98;5.65;;;;;;;28.30;100.00;99123.81;5172481;27;20050;-61
2022/08/24 05:58:18;;;;;;;13.00;6.28;;;;;;;29.61;100.00;99172.44;5172341;27;20049;-63
2022/08/24 06:00:44;;;;;;;10.95;6.05;;;;;;;29.55;100.00;99153.31;5172416;27;20086;-63
2022/08/24 06:03:12;;;;;;;11.05;6.13;;;;;;;30.42;100.00;99177.13;5172210;27;20092;-61
2022/08/24 06:05:39;;;;;;;12.60;6.03;;;;;;;30.38;100.00;99185.84;5172702;27;20047;-61
2022/08/24 06:08:05;;;;;;;8.13;5.97;;;;;;;30.92;100.00;99220.00;5172438;27;20111;-61
2022/08/24 06:10:32;;;;;;;10.73;5.80;;;;;;;29.78;100.00;99219.38;5172822;27;20081;-61
2022/08/24 06:12:58;;;;;;;9.00;5.70;;;;;;;30.24;100.00;99220.66;5172175;27;20056;-62
2022/08/24 06:15:25;;;;;;;10.32;5.68;;;;;;;30.84;100.00;99232.28;5172106;27;20141;-62
2022/08/24 06:17:51;;;;;;;8.60;5.57;;;;;;;30.28;100.00;99226.88;5171922;27;20058;-60
2022/08/24 06:20:17;;;;;;;12.90;5.85;;;;;;;30.25;100.00;99236.34;5172423;27;20569;-62
2022/08/24 06:22:44;;;;;;;10.48;6.13;;;;;;;31.33;100.00;99236.75;5171913;27;20129;-58
2022/08/24 06:27:54;;;;;;;12.93;5.88;;;;;;;31.52;100.00;99276.00;5139874;27;20054;-58
2022/08/24 06:30:20;;;;;;;13.45;6.18;;;;;;;31.50;100.00;99282.19;5171792;27;20094;-58
2022/08/24 06:32:47;;;;;;;10.23;5.72;;;;;;;31.56;100.00;99251.81;5171961;27;20115;-58
2022/08/24 06:35:13;;;;;;;12.98;5.45;;;;;;;31.44;100.00;99267.19;5172321;27;20129;-58
2022/08/24 06:37:40;;;;;;;12.82;6.10;;;;;;;31.77;100.00;99275.09;5175682;27;20050;-57
2022/08/24 06:40:09;;;;;;;7.57;5.47;;;;;;;32.09;100.00;99272.16;5175510;27;20102;-57
2022/08/24 06:42:35;;;;;;;9.60;5.35;;;;;;;31.67;100.00;99284.31;5175348;27;20050;-54
2022/08/24 06:45:01;;;;;;;17.02;5.93;;;;;;;31.84;100.00;99299.34;5175533;27;20050;-58
2022/08/24 06:47:28;;;;;;;9.32;5.75;;;;;;;31.30;100.00;99294.38;5175395;27;20050;-57
2022/08/24 06:49:57;;;;;;;12.25;5.53;;;;;;;32.60;100.00;99309.97;5175811;27;20509;-57
2022/08/24 06:52:24;;;;;;;10.98;5.38;;;;;;;32.25;100.00;99294.09;5175418;27;20042;-57
2022/08/24 06:54:51;;;;;;;10.82;5.50;;;;;;;33.17;100.00;99319.31;5175544;27;20541;-57
2022/08/24 06:57:18;;;;;;;12.68;5.28;;;;;;;33.12;100.00;99334.25;5175645;27;20089;-57
2022/08/24 06:59:45;;;;;;;11.35;5.25;;;;;;;32.96;100.00;99333.00;5175224;27;20508;-55
2022/08/24 07:02:14;;;;;;;11.80;5.22;;;;;;;32.43;100.00;99315.59;5175346;27;20513;-56
2022/08/24 07:04:41;;;;;;;11.32;5.65;;;;;;;32.85;100.00;99319.50;5175195;27;20042;-55
2022/08/24 07:07:08;;;;;;;10.02;5.18;;;;;;;32.19;100.00;99320.91;5175234;27;20141;-57
2022/08/24 07:09:34;;;;;;;7.43;5.00;;;;;;;33.78;100.00;99334.72;5175128;27;20489;-58
2022/08/24 07:12:00;;;;;;;9.25;5.15;;;;;;;34.47;100.00;99337.53;5175019;27;20085;-58
2022/08/24 07:14:27;;;;;;;6.88;4.82;;;;;;;34.34;99.34;99351.59;5174718;27;20054;-58
2022/08/24 07:16:53;;;;;;;8.23;5.00;;;;;;;32.63;100.00;99325.19;5174879;27;20054;-55
2022/08/24 07:19:19;;;;;;;7.90;5.10;;;;;;;31.97;100.00;99328.03;5174810;27;20477;-58
2022/08/24 07:21:46;;;;;;;8.18;5.20;;;;;;;33.85;100.00;99329.25;5175111;27;20129;-54
2022/08/24 07:24:13;;;;;;;6.80;4.70;;;;;;;33.19;100.00;99343.06;5174872;27;20050;-54
2022/08/24 07:26:39;;;;;;;8.13;4.88;;;;;;;33.80;100.00;99341.44;5174851;27;20088;-57
2022/08/24 07:29:09;;;;;;;10.80;5.28;;;;;;;33.26;100.00;99331.19;5175027;27;20449;-58
2022/08/24 07:31:38;;;;;;;11.48;5.50;;;;;;;34.12;100.00;99350.41;5174768;27;20085;-55
2022/08/24 07:34:07;;;;;;;8.98;5.00;;;;;;;34.15;100.00;99349.34;5174809;27;20548;-58
2022/08/24 07:36:34;;;;;;;10.77;4.60;;;;;;;33.35;99.20;99358.53;5174628;27;20046;-54
2022/08/24 07:39:01;;;;;;;16.40;5.07;;;;;;;33.47;100.00;99351.56;5174618;27;20552;-56
2022/08/24 07:41:30;;;;;;;8.65;4.72;;;;;;;33.89;100.00;99352.53;5174426;27;20050;-58
2022/08/24 07:43:57;;;;;;;13.82;5.15;;;;;;;34.14;99.34;99359.19;5174948;27;20046;-58
2022/08/24 07:46:23;;;;;;;5.35;4.43;;;;;;;33.08;100.00;99345.13;5174456;27;20046;-58
2022/08/24 07:48:50;;;;;;;6.18;4.60;;;;;;;33.16;100.00;99337.66;5173780;27;20398;-60
2022/08/24 07:51:18;;;;;;;7.20;4.55;;;;;;;33.13;100.00;99336.59;5174567;27;20042;-58
2022/08/24 07:53:45;;;;;;;8.90;5.13;;;;;;;33.46;100.00;99332.19;5174278;27;20046;-56
2022/08/24 07:56:12;;;;;;;12.73;4.63;;;;;;;34.02;100.00;99351.19;5174529;27;20098;-58
2022/08/24 07:58:39;;;;;;;5.35;4.32;;;;;;;34.27;94.22;99366.38;5174310;27;20054;-58
2022/08/24 08:01:07;;;;;;;7.80;4.45;;;;;;;34.54;93.56;99370.41;5174432;27;20055;-56
2022/08/24 08:03:33;;;;;;;5.25;4.50;;;;;;;34.53;88.07;99388.78;5174068;27;20085;-58
2022/08/24 08:06:01;;;;;;;8.13;4.18;;;;;;;34.02;91.93;99376.81;5174246;27;20085;-60
2022/08/24 08:08:28;;;;;;;8.80;4.50;;;;;;;34.80;87.11;99384.22;5174041;27;20050;-57
2022/08/24 08:10:56;;;;;;;6.00;4.38;;;;;;;34.26;83.63;99405.44;5174580;27;20053;-56
2022/08/24 08:13:22;;;;;;;6.38;4.20;;;;;;;34.43;87.65;99397.59;5174158;27;20086;-58
2022/08/24 08:15:49;;;;;;;9.40;4.65;;;;;;;35.73;84.87;99399.56;5173988;27;20046;-57
2022/08/24 08:18:17;;;;;;;11.07;4.25;;;;;;;35.67;83.69;99407.41;5174008;27;20397;-58
2022/08/24 08:20:44;;;;;;;6.25;4.22;;;;;;;34.44;85.46;99407.66;5174256;27;20485;-58
2022/08/24 08:25:56;;;;;;;9.60;4.63;;;;;;;34.54;83.94;99396.03;5173898;27;20098;-58
2022/08/24 08:28:23;;;;;;;8.40;4.13;;;;;;;33.95;85.08;99392.31;5173879;27;20138;-58
2022/08/24 08:30:51;;;;;;;9.57;4.13;;;;;;;35.15;83.31;99397.72;5173805;27;20054;-59
2022/08/24 08:33:18;;;;;;;8.27;3.95;;;;;;;35.69;81.04;99399.88;5173759;27;20058;-58
2022/08/24 08:35:44;;;;;;;11.00;4.22;;;;;;;34.94;79.08;99405.09;5173508;27;20085;-57
2022/08/24 08:38:11;;;;;;;11.23;4.07;;;;;;;34.58;80.91;99400.13;5173517;27;20088;-58
2022/08/24 08:40:59;;;;;;;11.93;3.80;;;;;;;36.36;77.35;99403.31;5173681;27;20050;-56
2022/08/24 08:43:39;;;;;;;9.82;3.90;;;;;;;34.06;81.20;99405.78;5173624;27;20129;-57
2022/08/24 08:46:19;;;;;;;9.90;4.40;;;;;;;36.10;77.30;99409.59;5173941;27;20077;-56
2022/08/24 08:49:06;;;;;;;11.25;3.58;;;;;;;36.44;77.93;99405.00;5173574;27;20149;-56
2022/08/24 08:52:16;;;;;;;10.27;4.10;;;;;;;37.04;77.56;99408.88;5173925;27;20056;-54
2022/08/24 08:54:48;;;;;;;9.88;4.15;;;;;;;37.19;74.76;99409.94;5109107;28;20051;-56
2022/08/24 08:57:37;;;;;;;8.10;3.43;;;;;;;36.44;73.68;99418.50;5160250;27;20085;-56
2022/08/24 09:00:13;;;;;;;9.50;3.40;;;;;;;35.75;73.32;99423.38;5172116;27;20144;-57
2022/08/24 09:03:16;;;;;;;7.80;3.90;;;;;;;34.95;77.17;99421.66;5173245;27;20133;-58
2022/08/24 09:05:56;;;;;;;6.07;4.05;;;;;;;36.14;76.50;99404.34;5159253;27;20073;-57
2022/08/24 09:08:32;;;;;;;8.60;4.20;;;;;;;36.53;75.60;99403.09;5173630;27;20056;-58
2022/08/24 09:11:07;;;;;;;11.38;4.38;;;;;;;36.90;74.48;99394.50;5173195;27;20046;-57
2022/08/24 09:13:57;;;;;;;11.73;3.72;;;;;;;37.69;71.84;99404.69;5173467;27;20576;-57
2022/08/24 09:16:40;;;;;;;8.60;3.80;;;;;;;36.03;77.02;99397.44;5173200;27;20106;-55
2022/08/24 09:19:23;;;;;;;11.13;3.65;;;;;;;34.61;74.18;99409.69;5173009;27;20200;-56
2022/08/24 09:22:10;;;;;;;7.28;3.63;;;;;;;35.86;71.27;99413.97;5211490;27;20127;-56
2022/08/24 09:24:59;;;;;;;5.72;3.25;;;;;;;35.16;72.79;99413.53;5190208;27;20465;-57
2022/08/24 09:27:35;;;;;;;7.80;4.07;;;;;;;35.32;75.02;99411.81;5189876;27;20148;-55
2022/08/24 09:30:08;;;;;;;9.52;3.90;;;;;;;34.80;75.11;99409.84;5189894;27;20137;-57
2022/08/24 09:32:46;;;;;;;13.00;3.80;;;;;;;34.29;75.53;99410.09;5189720;27;20047;-59
2022/08/24 09:35:17;;;;;;;5.93;3.25;;;;;;;34.08;74.83;99429.53;5189770;27;20042;-57
2022/08/24 09:37:58;;;;;;;9.52;3.40;;;;;;;35.32;72.73;99411.81;5189417;27;20132;-56
2022/08/24 09:40:41;;;;;;;9.00;3.10;;;;;;;34.05;71.39;99426.97;5189390;27;20053;-57
2022/08/24 09:43:46;;;;;;;8.77;3.63;;;;;;;34.31;70.96;99421.69;5189693;27;20053;-57
2022/08/24 09:46:42;;;;;;;6.00;3.53;;;;;;;34.24;71.92;99407.25;5189327;27;20058;-55
2022/08/24 09:49:40;;;;;;;12.52;4.57;;;;;;;35.05;68.84;99405.81;5189380;27;20137;-56
2022/08/24 09:52:33;;;;;;;7.70;4.03;;;;;;;35.29;68.59;99418.59;5186388;27;20098;-57
2022/08/24 09:55:32;;;;;;;4.78;3.40;;;;;;;35.66;67.46;99420.13;5189046;27;20050;-57
2022/08/24 09:58:09;;;;;;;11.55;3.75;;;;;;;35.44;65.63;99421.84;5189227;27;20057;-56
2022/08/24 10:00:43;;;;;;;9.50;3.50;;;;;;;35.34;63.72;99423.47;5188919;27;20053;-56
2022/08/24 10:03:26;;;;;;;9.40;3.55;;;;;;;35.80;62.51;99418.94;5189213;27;20140;-56
2022/08/24 10:06:09;;;;;;;4.93;3.45;;;;;;;35.28;60.51;99428.44;5189309;27;20117;-55
2022/08/24 10:09:00;;;;;;;11.95;3.53;;;;;;;34.91;64.90;99418.31;5188963;27;20497;-56
2022/08/24 10:11:37;;;;;;;6.25;3.40;;;;;;;35.64;60.51;99428.44;5189030;27;20432;-55
2022/08/24 10:14:12;;;;;;;15.73;3.90;;;;;;;34.19;62.44;99423.06;5189162;27;20545;-57
2022/08/24 10:16:48;;;;;;;10.40;3.60;;;;;;;34.41;63.42;99422.19;5188864;27;20517;-56
2022/08/24 10:19:38;;;;;;;6.75;3.38;;;;;;;34.70;63.91;99415.09;5188919;27;20046;-53
2022/08/24 10:22:14;;;;;;;11.77;3.63;;;;;;;35.22;65.02;99419.94;5188828;27;20517;-57
2022/08/24 10:24:59;;;;;;;8.10;3.67;;;;;;;34.25;61.28;99415.25;5188461;27;20568;-56
2022/08/24 10:27:44;;;;;;;10.55;3.42;;;;;;;33.61;62.02;99411.50;5188339;27;20452;-56
2022/08/24 10:30:44;;;;;;;18.08;4.10;;;;;;;33.42;60.71;99426.22;5188657;27;20061;-53
2022/08/24 10:33:19;;;;;;;10.98;3.78;;;;;;;33.92;61.58;99418.94;5132429;27;20077;-55
2022/08/24 10:36:05;;;;;;;6.85;2.88;;;;;;;33.12;59.80;99419.47;5174475;27;20441;-56
2022/08/24 10:42:03;;;;;;;7.13;3.50;;;;;;;32.98;64.52;99404.22;5138783;27;20042;-54
2022/08/24 10:44:43;;;;;;;10.82;3.45;;;;;;;33.32;65.20;99401.41;5174571;27;20363;-55
2022/08/24 10:47:17;;;;;;;7.82;3.20;;;;;;;33.34;64.78;99396.78;5174834;27;20053;-52
2022/08/24 10:50:24;;;;;;;6.43;3.92;;;;;;;32.83;68.20;99403.69;5174338;27;20058;-54
2022/08/24 10:53:16;;;;;;;8.45;3.22;;;;;;;32.89;68.49;99391.03;5174230;27;20046;-55
2022/08/24 10:55:43;;;;;;;10.38;3.60;;;;;;;32.71;69.38;99397.19;5174479;27;20148;-54
2022/08/24 10:58:43;;;;;;;15.30;3.83;;;;;;;32.75;69.39;99397.69;5174143;27;20512;-58
2022/08/24 11:01:26;;;;;;;11.25;3.70;;;;;;;32.72;71.36;99390.22;5174223;27;20089;-55
2022/08/24 11:03:57;;;;;;;8.75;3.72;;;;;;;32.98;71.45;99390.03;5174004;27;20137;-57
2022/08/24 11:06:31;;;;;;;12.15;4.03;;;;;;;32.37;71.81;99380.03;5174114;27;20046;-57
2022/08/24 11:09:06;;;;;;;7.05;3.45;;;;;;;32.24;72.79;99382.56;5174049;27;20542;-54
2022/08/24 11:11:34;;;;;;;11.18;5.47;;;;;;;32.13;68.57;99388.97;5173986;27;20270;-50
2022/08/24 11:14:03;;;;;;;14.63;3.63;;;;;;;32.04;67.61;99392.00;5174359;27;20050;-58
2022/08/24 11:16:35;;;;;;;16.35;3.53;;;;;;;32.01;68.18;99381.69;5173726;27;20113;-57
2022/08/24 11:19:04;;;;;;;8.75;3.42;;;;;;;32.38;68.58;99380.81;5173677;27;20136;-54
2022/08/24 11:21:39;;;;;;;8.55;3.50;;;;;;;32.00;68.05;99389.41;5173734;27;20046;-54
2022/08/24 11:24:08;;;;;;;13.52;3.47;;;;;;;31.82;67.65;99381.28;5173856;27;20057;-59
2022/08/24 11:26:49;;;;;;;9.77;3.47;;;;;;;32.54;66.40;99380.88;5173937;27;20137;-58
2022/08/24 11:29:16;;;;;;;8.10;3.08;;;;;;;31.95;67.98;99375.19;5173533;27;20054;-56
2022/08/24 11:31:46;;;;;;;5.13;3.15;;;;;;;31.91;67.19;99381.09;5173711;27;20053;-56
2022/08/24 11:34:16;;;;;;;10.32;3.20;;;;;;;31.77;66.43;99379.19;5173483;27;20053;-57
2022/08/24 11:36:42;;;;;;;11.90;3.50;;;;;;;31.97;67.73;99384.75;5173490;27;20050;-51
2022/08/24 11:39:15;;;;;;;6.75;3.35;;;;;;;32.00;68.29;99368.78;5173229;27;20078;-53
2022/08/24 11:41:52;;;;;;;6.35;3.03;;;;;;;32.18;67.76;99390.25;5173395;27;20136;-54
2022/08/24 11:44:36;;;;;;;8.90;2.90;;;;;;;31.89;66.61;99372.34;5172329;27;20056;-54
2022/08/24 11:47:14;;;;;;;15.02;3.60;;;;;;;31.54;66.48;99369.78;5173325;27;20050;-51
2022/08/24 11:49:50;;;;;;;9.68;3.20;;;;;;;31.46;66.53;99392.13;5173759;27;20046;-51
2022/08/24 11:52:41;;;;;;;9.75;3.20;;;;;;;31.57;65.89;99377.28;5173400;27;20042;-51
2022/08/24 11:55:13;;;;;;;15.05;3.40;;;;;;;31.74;65.82;99378.16;5173401;27;20050;-52